sensor_id;sensor_type;location;lat;lon;timestamp;P1;durP1;ratioP1;P2;durP2;ratioP2
68870;SDS011;55906;52.278;6.808;2022-08-01T00:01:12;7.95;;;5.30;;
68870;SDS011;55906;52.278;6.808;2022-08-01T00:03:38;10.10;;;5.97;;
68870;SDS011;55906;52.278;6.808;2022-08-01T00:06:05;7.30;;;4.67;;
68870;SDS011;55906;52.278;6.808;2022-08-01T00:08:35;8.50;;;5.22;;
68870;SDS011;55906;52.278;6.808;2022-08-01T00:11:02;9.48;;;5.60;;
68870;SDS011;55906;52.278;6.808;2022-08-01T00:13:29;8.18;;;5.22;;
68870;SDS011;55906;52.278;6.808;2022-08-01T00:15:55;9.98;;;6.03;;
68870;SDS011;55906;52.278;6.808;2022-08-01T00:18:22;8.30;;;4.83;;
68870;SDS011;55906;52.278;6.808;2022-08-01T00:20:48;8.75;;;5.13;;
68870;SDS011;55906;52.278;6.808;2022-08-01T00:23:15;9.50;;;5.63;;
68870;SDS011;55906;52.278;6.808;2022-08-01T00:25:43;8.90;;;5.13;;
68870;SDS011;55906;52.278;6.808;2022-08-01T00:28:09;7.85;;;4.78;;
68870;SDS011;55906;52.278;6.808;2022-08-01T00:30:36;8.47;;;5.13;;
68870;SDS011;55906;52.278;6.808;2022-08-01T00:33:03;8.23;;;5.22;;
68870;SDS011;55906;52.278;6.808;2022-08-01T00:35:29;7.38;;;4.88;;
68870;SDS011;55906;52.278;6.808;2022-08-01T00:37:56;9.35;;;5.18;;
68870;SDS011;55906;52.278;6.808;2022-08-01T00:40:22;9.18;;;5.50;;
68870;SDS011;55906;52.278;6.808;2022-08-01T00:42:50;7.43;;;4.77;;
68870;SDS011;55906;52.278;6.808;2022-08-01T00:45:17;7.65;;;5.05;;
68870;SDS011;55906;52.278;6.808;2022-08-01T00:47:44;8.32;;;4.70;;
68870;SDS011;55906;52.278;6.808;2022-08-01T00:50:11;9.55;;;4.95;;
68870;SDS011;55906;52.278;6.808;2022-08-01T00:52:38;6.13;;;4.10;;
68870;SDS011;55906;52.278;6.808;2022-08-01T00:55:06;6.53;;;3.93;;
68870;SDS011;55906;52.278;6.808;2022-08-01T00:57:33;8.65;;;4.68;;
68870;SDS011;55906;52.278;6.808;2022-08-01T01:00:03;8.75;;;4.75;;
68870;SDS011;55906;52.278;6.808;2022-08-01T01:02:31;9.18;;;4.82;;
68870;SDS011;55906;52.278;6.808;2022-08-01T01:04:58;9.55;;;4.57;;
68870;SDS011;55906;52.278;6.808;2022-08-01T01:07:26;8.63;;;5.67;;
68870;SDS011;55906;52.278;6.808;2022-08-01T01:10:00;7.50;;;4.95;;
68870;SDS011;55906;52.278;6.808;2022-08-01T01:12:30;6.10;;;4.30;;
68870;SDS011;55906;52.278;6.808;2022-08-01T01:15:03;8.20;;;4.95;;
68870;SDS011;55906;52.278;6.808;2022-08-01T01:17:35;7.75;;;4.68;;
68870;SDS011;55906;52.278;6.808;2022-08-01T01:20:05;8.20;;;5.33;;
68870;SDS011;55906;52.278;6.808;2022-08-01T01:22:42;8.55;;;5.32;;
68870;SDS011;55906;52.278;6.808;2022-08-01T01:28:17;7.97;;;5.45;;
68870;SDS011;55906;52.278;6.808;2022-08-01T01:30:53;7.63;;;5.07;;
68870;SDS011;55906;52.278;6.808;2022-08-01T01:33:23;7.37;;;4.57;;
68870;SDS011;55906;52.278;6.808;2022-08-01T01:35:55;8.00;;;5.13;;
68870;SDS011;55906;52.278;6.808;2022-08-01T01:38:26;7.95;;;5.28;;
68870;SDS011;55906;52.278;6.808;2022-08-01T01:40:55;8.57;;;4.88;;
68870;SDS011;55906;52.278;6.808;2022-08-01T01:43:23;6.70;;;4.97;;
68870;SDS011;55906;52.278;6.808;2022-08-01T01:45:53;7.30;;;5.03;;
68870;SDS011;55906;52.278;6.808;2022-08-01T01:48:20;7.97;;;5.15;;
68870;SDS011;55906;52.278;6.808;2022-08-01T01:50:49;9.43;;;5.57;;
68870;SDS011;55906;52.278;6.808;2022-08-01T01:53:18;8.10;;;5.70;;
68870;SDS011;55906;52.278;6.808;2022-08-01T01:59:10;6.20;;;4.13;;
68870;SDS011;55906;52.278;6.808;2022-08-01T02:01:42;8.07;;;4.75;;
68870;SDS011;55906;52.278;6.808;2022-08-01T02:04:10;7.05;;;4.30;;
68870;SDS011;55906;52.278;6.808;2022-08-01T02:06:37;7.10;;;4.55;;
68870;SDS011;55906;52.278;6.808;2022-08-01T02:09:05;7.25;;;4.32;;
68870;SDS011;55906;52.278;6.808;2022-08-01T02:11:35;5.87;;;3.60;;
68870;SDS011;55906;52.278;6.808;2022-08-01T02:14:02;6.95;;;3.58;;
68870;SDS011;55906;52.278;6.808;2022-08-01T02:16:31;5.60;;;3.53;;
68870;SDS011;55906;52.278;6.808;2022-08-01T02:19:02;5.75;;;3.42;;
68870;SDS011;55906;52.278;6.808;2022-08-01T02:21:30;5.15;;;3.22;;
68870;SDS011;55906;52.278;6.808;2022-08-01T02:24:02;5.50;;;3.60;;
68870;SDS011;55906;52.278;6.808;2022-08-01T02:26:34;6.40;;;3.30;;
68870;SDS011;55906;52.278;6.808;2022-08-01T02:29:07;5.32;;;3.70;;
68870;SDS011;55906;52.278;6.808;2022-08-01T02:31:38;5.22;;;3.67;;
68870;SDS011;55906;52.278;6.808;2022-08-01T02:34:11;4.82;;;3.33;;
68870;SDS011;55906;52.278;6.808;2022-08-01T02:36:41;5.77;;;3.50;;
68870;SDS011;55906;52.278;6.808;2022-08-01T02:39:11;6.05;;;3.92;;
68870;SDS011;55906;52.278;6.808;2022-08-01T02:41:42;6.35;;;4.15;;
68870;SDS011;55906;52.278;6.808;2022-08-01T02:44:13;5.78;;;4.03;;
68870;SDS011;55906;52.278;6.808;2022-08-01T02:46:46;6.55;;;4.50;;
68870;SDS011;55906;52.278;6.808;2022-08-01T02:49:17;6.23;;;4.40;;
68870;SDS011;55906;52.278;6.808;2022-08-01T02:51:46;5.60;;;3.72;;
68870;SDS011;55906;52.278;6.808;2022-08-01T02:54:15;5.35;;;3.63;;
68870;SDS011;55906;52.278;6.808;2022-08-01T02:56:43;6.45;;;4.43;;
68870;SDS011;55906;52.278;6.808;2022-08-01T02:59:13;5.72;;;3.92;;
68870;SDS011;55906;52.278;6.808;2022-08-01T03:01:44;5.60;;;3.73;;
68870;SDS011;55906;52.278;6.808;2022-08-01T03:04:12;5.53;;;3.75;;
68870;SDS011;55906;52.278;6.808;2022-08-01T03:06:40;7.72;;;4.25;;
68870;SDS011;55906;52.278;6.808;2022-08-01T03:09:08;6.97;;;4.38;;
68870;SDS011;55906;52.278;6.808;2022-08-01T03:11:36;5.25;;;3.92;;
68870;SDS011;55906;52.278;6.808;2022-08-01T03:14:07;4.57;;;3.10;;
68870;SDS011;55906;52.278;6.808;2022-08-01T03:16:36;5.65;;;3.85;;
68870;SDS011;55906;52.278;6.808;2022-08-01T03:19:04;6.10;;;4.22;;
68870;SDS011;55906;52.278;6.808;2022-08-01T03:21:37;5.78;;;3.75;;
68870;SDS011;55906;52.278;6.808;2022-08-01T03:24:09;5.68;;;3.60;;
68870;SDS011;55906;52.278;6.808;2022-08-01T03:26:38;5.70;;;3.77;;
68870;SDS011;55906;52.278;6.808;2022-08-01T03:29:06;5.88;;;3.50;;
68870;SDS011;55906;52.278;6.808;2022-08-01T03:31:37;6.38;;;4.05;;
68870;SDS011;55906;52.278;6.808;2022-08-01T03:34:07;5.60;;;3.53;;
68870;SDS011;55906;52.278;6.808;2022-08-01T03:36:34;6.80;;;4.50;;
68870;SDS011;55906;52.278;6.808;2022-08-01T03:39:09;5.40;;;3.60;;
68870;SDS011;55906;52.278;6.808;2022-08-01T03:41:38;5.38;;;3.90;;
68870;SDS011;55906;52.278;6.808;2022-08-01T03:44:08;4.93;;;3.75;;
68870;SDS011;55906;52.278;6.808;2022-08-01T03:46:40;5.20;;;3.20;;
68870;SDS011;55906;52.278;6.808;2022-08-01T03:49:10;6.15;;;3.75;;
68870;SDS011;55906;52.278;6.808;2022-08-01T03:51:40;5.00;;;3.57;;
68870;SDS011;55906;52.278;6.808;2022-08-01T03:54:07;5.72;;;3.50;;
68870;SDS011;55906;52.278;6.808;2022-08-01T03:56:36;6.60;;;3.65;;
68870;SDS011;55906;52.278;6.808;2022-08-01T03:59:04;5.15;;;3.58;;
68870;SDS011;55906;52.278;6.808;2022-08-01T04:01:31;5.50;;;3.53;;
68870;SDS011;55906;52.278;6.808;2022-08-01T04:03:59;5.50;;;3.40;;
68870;SDS011;55906;52.278;6.808;2022-08-01T04:06:26;5.20;;;3.22;;
68870;SDS011;55906;52.278;6.808;2022-08-01T04:08:54;4.53;;;2.97;;
68870;SDS011;55906;52.278;6.808;2022-08-01T04:11:21;6.97;;;4.18;;
68870;SDS011;55906;52.278;6.808;2022-08-01T04:13:50;5.00;;;3.72;;
68870;SDS011;55906;52.278;6.808;2022-08-01T04:16:18;4.47;;;3.00;;
68870;SDS011;55906;52.278;6.808;2022-08-01T04:18:45;4.93;;;3.40;;
68870;SDS011;55906;52.278;6.808;2022-08-01T04:21:12;5.50;;;3.10;;
68870;SDS011;55906;52.278;6.808;2022-08-01T04:23:39;4.15;;;2.80;;
68870;SDS011;55906;52.278;6.808;2022-08-01T04:26:10;5.15;;;3.10;;
68870;SDS011;55906;52.278;6.808;2022-08-01T04:28:38;4.93;;;3.27;;
68870;SDS011;55906;52.278;6.808;2022-08-01T04:31:08;4.13;;;2.78;;
68870;SDS011;55906;52.278;6.808;2022-08-01T04:33:37;4.70;;;3.10;;
68870;SDS011;55906;52.278;6.808;2022-08-01T04:36:06;5.65;;;3.58;;
68870;SDS011;55906;52.278;6.808;2022-08-01T04:38:37;5.28;;;3.83;;
68870;SDS011;55906;52.278;6.808;2022-08-01T04:41:05;4.60;;;3.00;;
68870;SDS011;55906;52.278;6.808;2022-08-01T04:43:34;4.43;;;3.30;;
68870;SDS011;55906;52.278;6.808;2022-08-01T04:46:01;4.40;;;2.85;;
68870;SDS011;55906;52.278;6.808;2022-08-01T04:48:29;4.43;;;3.15;;
68870;SDS011;55906;52.278;6.808;2022-08-01T04:50:58;5.30;;;3.50;;
68870;SDS011;55906;52.278;6.808;2022-08-01T04:53:25;4.60;;;3.10;;
68870;SDS011;55906;52.278;6.808;2022-08-01T04:55:53;4.95;;;3.50;;
68870;SDS011;55906;52.278;6.808;2022-08-01T04:58:20;4.63;;;3.00;;
68870;SDS011;55906;52.278;6.808;2022-08-01T05:00:48;5.72;;;4.07;;
68870;SDS011;55906;52.278;6.808;2022-08-01T05:03:15;6.80;;;3.83;;
68870;SDS011;55906;52.278;6.808;2022-08-01T05:05:41;4.80;;;3.43;;
68870;SDS011;55906;52.278;6.808;2022-08-01T05:08:08;4.78;;;3.40;;
68870;SDS011;55906;52.278;6.808;2022-08-01T05:10:35;5.05;;;3.33;;
68870;SDS011;55906;52.278;6.808;2022-08-01T05:13:01;6.10;;;3.90;;
68870;SDS011;55906;52.278;6.808;2022-08-01T05:15:28;5.47;;;4.28;;
68870;SDS011;55906;52.278;6.808;2022-08-01T05:17:56;5.43;;;3.73;;
68870;SDS011;55906;52.278;6.808;2022-08-01T05:20:23;5.10;;;3.60;;
68870;SDS011;55906;52.278;6.808;2022-08-01T05:22:49;4.95;;;3.53;;
68870;SDS011;55906;52.278;6.808;2022-08-01T05:25:16;6.15;;;3.80;;
68870;SDS011;55906;52.278;6.808;2022-08-01T05:27:43;4.75;;;3.42;;
68870;SDS011;55906;52.278;6.808;2022-08-01T05:30:09;4.20;;;2.97;;
68870;SDS011;55906;52.278;6.808;2022-08-01T05:32:36;5.53;;;3.85;;
68870;SDS011;55906;52.278;6.808;2022-08-01T05:35:06;4.75;;;3.13;;
68870;SDS011;55906;52.278;6.808;2022-08-01T05:37:33;4.22;;;3.03;;
68870;SDS011;55906;52.278;6.808;2022-08-01T05:40:00;4.80;;;3.30;;
68870;SDS011;55906;52.278;6.808;2022-08-01T05:42:27;4.23;;;3.13;;
68870;SDS011;55906;52.278;6.808;2022-08-01T05:44:53;5.13;;;3.20;;
68870;SDS011;55906;52.278;6.808;2022-08-01T05:47:20;4.70;;;3.05;;
68870;SDS011;55906;52.278;6.808;2022-08-01T05:49:47;5.40;;;3.25;;
68870;SDS011;55906;52.278;6.808;2022-08-01T05:52:15;4.30;;;2.97;;
68870;SDS011;55906;52.278;6.808;2022-08-01T05:54:41;5.30;;;3.40;;
68870;SDS011;55906;52.278;6.808;2022-08-01T05:57:08;3.92;;;2.53;;
68870;SDS011;55906;52.278;6.808;2022-08-01T05:59:35;5.30;;;3.38;;
68870;SDS011;55906;52.278;6.808;2022-08-01T06:02:01;5.07;;;3.22;;
68870;SDS011;55906;52.278;6.808;2022-08-01T06:04:28;4.78;;;3.50;;
68870;SDS011;55906;52.278;6.808;2022-08-01T06:06:54;5.30;;;3.20;;
68870;SDS011;55906;52.278;6.808;2022-08-01T06:09:22;4.53;;;3.35;;
68870;SDS011;55906;52.278;6.808;2022-08-01T06:11:52;4.82;;;3.70;;
68870;SDS011;55906;52.278;6.808;2022-08-01T06:14:18;4.45;;;2.83;;
68870;SDS011;55906;52.278;6.808;2022-08-01T06:16:45;5.35;;;3.65;;
68870;SDS011;55906;52.278;6.808;2022-08-01T06:19:12;7.90;;;4.47;;
68870;SDS011;55906;52.278;6.808;2022-08-01T06:21:38;5.18;;;3.78;;
68870;SDS011;55906;52.278;6.808;2022-08-01T06:24:05;4.97;;;3.70;;
68870;SDS011;55906;52.278;6.808;2022-08-01T06:26:34;5.68;;;3.53;;
68870;SDS011;55906;52.278;6.808;2022-08-01T06:29:02;6.07;;;4.05;;
68870;SDS011;55906;52.278;6.808;2022-08-01T06:31:28;4.90;;;3.67;;
68870;SDS011;55906;52.278;6.808;2022-08-01T06:33:56;5.07;;;3.40;;
68870;SDS011;55906;52.278;6.808;2022-08-01T06:36:22;5.47;;;3.47;;
68870;SDS011;55906;52.278;6.808;2022-08-01T06:38:50;5.72;;;3.85;;
68870;SDS011;55906;52.278;6.808;2022-08-01T06:41:17;5.05;;;3.67;;
68870;SDS011;55906;52.278;6.808;2022-08-01T06:43:45;5.03;;;2.93;;
68870;SDS011;55906;52.278;6.808;2022-08-01T06:46:11;5.38;;;3.40;;
68870;SDS011;55906;52.278;6.808;2022-08-01T06:48:38;5.57;;;3.60;;
68870;SDS011;55906;52.278;6.808;2022-08-01T06:51:05;7.07;;;3.55;;
68870;SDS011;55906;52.278;6.808;2022-08-01T06:53:35;5.00;;;3.10;;
68870;SDS011;55906;52.278;6.808;2022-08-01T06:56:03;5.70;;;3.60;;
68870;SDS011;55906;52.278;6.808;2022-08-01T06:58:31;4.75;;;3.00;;
68870;SDS011;55906;52.278;6.808;2022-08-01T07:01:00;4.88;;;3.25;;
68870;SDS011;55906;52.278;6.808;2022-08-01T07:03:30;4.13;;;3.10;;
68870;SDS011;55906;52.278;6.808;2022-08-01T07:06:00;5.03;;;3.28;;
68870;SDS011;55906;52.278;6.808;2022-08-01T07:08:26;5.77;;;3.40;;
68870;SDS011;55906;52.278;6.808;2022-08-01T07:10:53;4.60;;;3.33;;
68870;SDS011;55906;52.278;6.808;2022-08-01T07:13:21;5.97;;;3.45;;
68870;SDS011;55906;52.278;6.808;2022-08-01T07:15:50;6.63;;;3.42;;
68870;SDS011;55906;52.278;6.808;2022-08-01T07:18:18;5.25;;;3.50;;
68870;SDS011;55906;52.278;6.808;2022-08-01T07:20:45;7.07;;;3.70;;
68870;SDS011;55906;52.278;6.808;2022-08-01T07:23:12;5.95;;;3.30;;
68870;SDS011;55906;52.278;6.808;2022-08-01T07:25:38;4.93;;;3.47;;
68870;SDS011;55906;52.278;6.808;2022-08-01T07:28:05;5.55;;;3.30;;
68870;SDS011;55906;52.278;6.808;2022-08-01T07:30:31;8.43;;;3.55;;
68870;SDS011;55906;52.278;6.808;2022-08-01T07:32:58;6.10;;;3.33;;
68870;SDS011;55906;52.278;6.808;2022-08-01T07:35:26;5.22;;;3.40;;
68870;SDS011;55906;52.278;6.808;2022-08-01T07:37:53;4.57;;;3.33;;
68870;SDS011;55906;52.278;6.808;2022-08-01T07:40:20;5.00;;;3.10;;
68870;SDS011;55906;52.278;6.808;2022-08-01T07:42:46;5.38;;;3.25;;
68870;SDS011;55906;52.278;6.808;2022-08-01T07:45:13;5.00;;;3.20;;
68870;SDS011;55906;52.278;6.808;2022-08-01T07:47:40;4.55;;;3.00;;
68870;SDS011;55906;52.278;6.808;2022-08-01T07:50:07;4.53;;;3.00;;
68870;SDS011;55906;52.278;6.808;2022-08-01T07:52:36;6.25;;;3.50;;
68870;SDS011;55906;52.278;6.808;2022-08-01T07:55:02;5.93;;;3.38;;
68870;SDS011;55906;52.278;6.808;2022-08-01T07:57:30;6.53;;;3.10;;
68870;SDS011;55906;52.278;6.808;2022-08-01T07:59:57;4.25;;;2.70;;
68870;SDS011;55906;52.278;6.808;2022-08-01T08:02:23;4.75;;;3.03;;
68870;SDS011;55906;52.278;6.808;2022-08-01T08:04:50;4.22;;;3.10;;
68870;SDS011;55906;52.278;6.808;2022-08-01T08:07:16;4.97;;;2.78;;
68870;SDS011;55906;52.278;6.808;2022-08-01T08:09:44;5.90;;;3.40;;
68870;SDS011;55906;52.278;6.808;2022-08-01T08:12:11;6.65;;;3.38;;
68870;SDS011;55906;52.278;6.808;2022-08-01T08:14:38;5.55;;;3.05;;
68870;SDS011;55906;52.278;6.808;2022-08-01T08:17:04;5.47;;;3.08;;
68870;SDS011;55906;52.278;6.808;2022-08-01T08:19:31;6.68;;;3.00;;
68870;SDS011;55906;52.278;6.808;2022-08-01T08:21:58;5.63;;;2.87;;
68870;SDS011;55906;52.278;6.808;2022-08-01T08:24:25;4.40;;;3.00;;
68870;SDS011;55906;52.278;6.808;2022-08-01T08:26:54;6.75;;;3.53;;
68870;SDS011;55906;52.278;6.808;2022-08-01T08:29:23;6.40;;;3.35;;
68870;SDS011;55906;52.278;6.808;2022-08-01T08:31:51;7.10;;;3.45;;
68870;SDS011;55906;52.278;6.808;2022-08-01T08:34:19;6.67;;;3.53;;
68870;SDS011;55906;52.278;6.808;2022-08-01T08:36:46;6.28;;;3.35;;
68870;SDS011;55906;52.278;6.808;2022-08-01T08:39:13;7.18;;;3.72;;
68870;SDS011;55906;52.278;6.808;2022-08-01T08:41:40;7.55;;;3.45;;
68870;SDS011;55906;52.278;6.808;2022-08-01T08:44:08;5.80;;;3.40;;
68870;SDS011;55906;52.278;6.808;2022-08-01T08:46:39;6.13;;;3.40;;
68870;SDS011;55906;52.278;6.808;2022-08-01T08:49:07;4.80;;;3.38;;
68870;SDS011;55906;52.278;6.808;2022-08-01T08:51:35;6.22;;;3.53;;
68870;SDS011;55906;52.278;6.808;2022-08-01T08:54:05;7.30;;;3.50;;
68870;SDS011;55906;52.278;6.808;2022-08-01T08:56:33;6.53;;;3.30;;
68870;SDS011;55906;52.278;6.808;2022-08-01T08:59:02;6.30;;;3.10;;
68870;SDS011;55906;52.278;6.808;2022-08-01T09:01:31;6.55;;;3.40;;
68870;SDS011;55906;52.278;6.808;2022-08-01T09:04:00;5.43;;;3.10;;
68870;SDS011;55906;52.278;6.808;2022-08-01T09:06:27;6.03;;;3.22;;
68870;SDS011;55906;52.278;6.808;2022-08-01T09:08:54;6.30;;;3.20;;
68870;SDS011;55906;52.278;6.808;2022-08-01T09:11:21;5.77;;;3.40;;
68870;SDS011;55906;52.278;6.808;2022-08-01T09:14:00;7.75;;;3.33;;
68870;SDS011;55906;52.278;6.808;2022-08-01T09:16:31;8.38;;;3.42;;
68870;SDS011;55906;52.278;6.808;2022-08-01T09:19:08;7.93;;;3.22;;
68870;SDS011;55906;52.278;6.808;2022-08-01T09:21:36;8.07;;;3.40;;
68870;SDS011;55906;52.278;6.808;2022-08-01T09:24:04;7.23;;;3.70;;
68870;SDS011;55906;52.278;6.808;2022-08-01T09:26:39;7.63;;;3.90;;
68870;SDS011;55906;52.278;6.808;2022-08-01T09:29:06;8.40;;;3.25;;
68870;SDS011;55906;52.278;6.808;2022-08-01T09:31:41;6.95;;;3.42;;
68870;SDS011;55906;52.278;6.808;2022-08-01T09:34:08;6.55;;;3.30;;
68870;SDS011;55906;52.278;6.808;2022-08-01T09:36:48;6.90;;;3.43;;
68870;SDS011;55906;52.278;6.808;2022-08-01T09:39:18;5.45;;;3.13;;
68870;SDS011;55906;52.278;6.808;2022-08-01T09:41:46;6.53;;;3.35;;
68870;SDS011;55906;52.278;6.808;2022-08-01T09:44:13;8.55;;;3.60;;
68870;SDS011;55906;52.278;6.808;2022-08-01T09:46:49;10.18;;;3.50;;
68870;SDS011;55906;52.278;6.808;2022-08-01T09:49:28;5.50;;;3.17;;
68870;SDS011;55906;52.278;6.808;2022-08-01T09:51:56;6.00;;;3.13;;
68870;SDS011;55906;52.278;6.808;2022-08-01T09:54:28;6.68;;;2.70;;
68870;SDS011;55906;52.278;6.808;2022-08-01T09:57:06;7.47;;;2.63;;
68870;SDS011;55906;52.278;6.808;2022-08-01T09:59:34;5.65;;;2.58;;
68870;SDS011;55906;52.278;6.808;2022-08-01T10:02:04;7.13;;;3.00;;
68870;SDS011;55906;52.278;6.808;2022-08-01T10:04:36;7.20;;;2.78;;
68870;SDS011;55906;52.278;6.808;2022-08-01T10:07:03;7.32;;;3.03;;
68870;SDS011;55906;52.278;6.808;2022-08-01T10:09:33;5.00;;;2.55;;
68870;SDS011;55906;52.278;6.808;2022-08-01T10:12:01;5.47;;;2.72;;
68870;SDS011;55906;52.278;6.808;2022-08-01T10:14:29;6.17;;;2.47;;
68870;SDS011;55906;52.278;6.808;2022-08-01T10:16:57;7.00;;;2.95;;
68870;SDS011;55906;52.278;6.808;2022-08-01T10:19:28;8.48;;;3.13;;
68870;SDS011;55906;52.278;6.808;2022-08-01T10:21:56;7.13;;;2.45;;
68870;SDS011;55906;52.278;6.808;2022-08-01T10:24:24;4.72;;;2.20;;
68870;SDS011;55906;52.278;6.808;2022-08-01T10:26:54;7.13;;;2.30;;
68870;SDS011;55906;52.278;6.808;2022-08-01T10:29:24;6.28;;;2.00;;
68870;SDS011;55906;52.278;6.808;2022-08-01T10:31:53;8.30;;;2.47;;
68870;SDS011;55906;52.278;6.808;2022-08-01T10:34:20;5.35;;;2.00;;
68870;SDS011;55906;52.278;6.808;2022-08-01T10:36:48;6.90;;;2.30;;
68870;SDS011;55906;52.278;6.808;2022-08-01T10:39:15;8.77;;;2.37;;
68870;SDS011;55906;52.278;6.808;2022-08-01T10:41:44;6.07;;;2.10;;
68870;SDS011;55906;52.278;6.808;2022-08-01T10:44:11;5.10;;;1.80;;
68870;SDS011;55906;52.278;6.808;2022-08-01T10:46:38;6.13;;;1.80;;
68870;SDS011;55906;52.278;6.808;2022-08-01T10:49:09;8.07;;;1.95;;
68870;SDS011;55906;52.278;6.808;2022-08-01T10:51:39;5.37;;;1.70;;
68870;SDS011;55906;52.278;6.808;2022-08-01T10:54:08;4.93;;;1.75;;
68870;SDS011;55906;52.278;6.808;2022-08-01T10:56:39;5.68;;;1.55;;
68870;SDS011;55906;52.278;6.808;2022-08-01T10:59:08;5.13;;;1.48;;
68870;SDS011;55906;52.278;6.808;2022-08-01T11:01:35;5.40;;;1.65;;
68870;SDS011;55906;52.278;6.808;2022-08-01T11:04:06;5.63;;;1.40;;
68870;SDS011;55906;52.278;6.808;2022-08-01T11:06:42;4.72;;;1.77;;
68870;SDS011;55906;52.278;6.808;2022-08-01T11:12:09;5.60;;;1.77;;
68870;SDS011;55906;52.278;6.808;2022-08-01T11:17:42;5.40;;;1.70;;
68870;SDS011;55906;52.278;6.808;2022-08-01T11:20:13;5.60;;;1.58;;
68870;SDS011;55906;52.278;6.808;2022-08-01T11:26:09;4.60;;;1.40;;
68870;SDS011;55906;52.278;6.808;2022-08-01T11:28:40;6.80;;;1.60;;
68870;SDS011;55906;52.278;6.808;2022-08-01T11:34:02;6.05;;;1.48;;
68870;SDS011;55906;52.278;6.808;2022-08-01T11:36:29;5.07;;;1.42;;
68870;SDS011;55906;52.278;6.808;2022-08-01T11:39:12;5.55;;;1.40;;
68870;SDS011;55906;52.278;6.808;2022-08-01T11:41:45;6.05;;;1.80;;
68870;SDS011;55906;52.278;6.808;2022-08-01T11:44:14;4.73;;;1.30;;
68870;SDS011;55906;52.278;6.808;2022-08-01T11:46:54;4.82;;;1.13;;
68870;SDS011;55906;52.278;6.808;2022-08-01T11:52:16;6.05;;;1.50;;
68870;SDS011;55906;52.278;6.808;2022-08-01T11:54:45;6.40;;;1.50;;
68870;SDS011;55906;52.278;6.808;2022-08-01T11:57:17;5.50;;;1.47;;
68870;SDS011;55906;52.278;6.808;2022-08-01T11:59:45;5.05;;;1.50;;
68870;SDS011;55906;52.278;6.808;2022-08-01T12:02:15;12.05;;;1.50;;
68870;SDS011;55906;52.278;6.808;2022-08-01T12:04:50;4.80;;;1.40;;
68870;SDS011;55906;52.278;6.808;2022-08-01T12:07:19;4.55;;;1.30;;
68870;SDS011;55906;52.278;6.808;2022-08-01T12:09:47;4.73;;;1.30;;
68870;SDS011;55906;52.278;6.808;2022-08-01T12:12:16;5.40;;;1.60;;
68870;SDS011;55906;52.278;6.808;2022-08-01T12:14:44;5.75;;;1.45;;
68870;SDS011;55906;52.278;6.808;2022-08-01T12:17:18;4.25;;;1.40;;
68870;SDS011;55906;52.278;6.808;2022-08-01T12:19:44;4.70;;;1.58;;
68870;SDS011;55906;52.278;6.808;2022-08-01T12:22:15;5.43;;;1.40;;
68870;SDS011;55906;52.278;6.808;2022-08-01T12:24:42;5.22;;;1.40;;
68870;SDS011;55906;52.278;6.808;2022-08-01T12:27:09;4.43;;;1.40;;
68870;SDS011;55906;52.278;6.808;2022-08-01T12:29:39;5.55;;;1.40;;
68870;SDS011;55906;52.278;6.808;2022-08-01T12:32:21;5.43;;;1.40;;
68870;SDS011;55906;52.278;6.808;2022-08-01T12:34:49;8.20;;;1.67;;
68870;SDS011;55906;52.278;6.808;2022-08-01T12:37:17;5.78;;;1.38;;
68870;SDS011;55906;52.278;6.808;2022-08-01T12:39:44;6.85;;;1.65;;
68870;SDS011;55906;52.278;6.808;2022-08-01T12:42:11;5.35;;;1.77;;
68870;SDS011;55906;52.278;6.808;2022-08-01T12:44:40;5.80;;;1.50;;
68870;SDS011;55906;52.278;6.808;2022-08-01T12:47:09;4.97;;;1.53;;
68870;SDS011;55906;52.278;6.808;2022-08-01T12:49:37;5.50;;;1.40;;
68870;SDS011;55906;52.278;6.808;2022-08-01T12:52:06;4.38;;;1.50;;
68870;SDS011;55906;52.278;6.808;2022-08-01T12:57:26;5.82;;;1.90;;
68870;SDS011;55906;52.278;6.808;2022-08-01T13:00:05;5.37;;;1.67;;
68870;SDS011;55906;52.278;6.808;2022-08-01T13:02:36;4.78;;;1.65;;
68870;SDS011;55906;52.278;6.808;2022-08-01T13:05:04;3.67;;;1.50;;
68870;SDS011;55906;52.278;6.808;2022-08-01T13:07:40;4.95;;;1.73;;
68870;SDS011;55906;52.278;6.808;2022-08-01T13:10:09;4.43;;;1.30;;
68870;SDS011;55906;52.278;6.808;2022-08-01T13:12:37;4.57;;;1.50;;
68870;SDS011;55906;52.278;6.808;2022-08-01T13:15:20;4.32;;;1.42;;
68870;SDS011;55906;52.278;6.808;2022-08-01T13:17:50;4.70;;;1.50;;
68870;SDS011;55906;52.278;6.808;2022-08-01T13:20:30;5.03;;;1.55;;
68870;SDS011;55906;52.278;6.808;2022-08-01T13:23:15;5.05;;;1.63;;
68870;SDS011;55906;52.278;6.808;2022-08-01T13:25:49;5.90;;;1.50;;
68870;SDS011;55906;52.278;6.808;2022-08-01T13:28:17;4.57;;;1.50;;
68870;SDS011;55906;52.278;6.808;2022-08-01T13:30:57;4.63;;;1.50;;
68870;SDS011;55906;52.278;6.808;2022-08-01T13:33:25;3.30;;;1.10;;
68870;SDS011;55906;52.278;6.808;2022-08-01T13:35:53;4.82;;;1.40;;
68870;SDS011;55906;52.278;6.808;2022-08-01T13:38:22;4.70;;;1.20;;
68870;SDS011;55906;52.278;6.808;2022-08-01T13:41:09;5.68;;;1.00;;
68870;SDS011;55906;52.278;6.808;2022-08-01T13:43:35;2.75;;;1.00;;
68870;SDS011;55906;52.278;6.808;2022-08-01T13:46:03;3.88;;;1.15;;
68870;SDS011;55906;52.278;6.808;2022-08-01T13:48:31;4.47;;;1.10;;
68870;SDS011;55906;52.278;6.808;2022-08-01T13:50:58;3.47;;;1.00;;
68870;SDS011;55906;52.278;6.808;2022-08-01T13:53:25;4.20;;;1.10;;
68870;SDS011;55906;52.278;6.808;2022-08-01T13:55:52;3.55;;;1.00;;
68870;SDS011;55906;52.278;6.808;2022-08-01T13:58:22;4.25;;;1.13;;
68870;SDS011;55906;52.278;6.808;2022-08-01T14:00:49;4.47;;;1.20;;
68870;SDS011;55906;52.278;6.808;2022-08-01T14:03:20;4.87;;;1.07;;
68870;SDS011;55906;52.278;6.808;2022-08-01T14:05:50;4.93;;;1.00;;
68870;SDS011;55906;52.278;6.808;2022-08-01T14:08:16;3.45;;;0.90;;
68870;SDS011;55906;52.278;6.808;2022-08-01T14:10:43;4.75;;;1.10;;
68870;SDS011;55906;52.278;6.808;2022-08-01T14:13:10;4.30;;;1.33;;
68870;SDS011;55906;52.278;6.808;2022-08-01T14:15:37;5.43;;;1.10;;
68870;SDS011;55906;52.278;6.808;2022-08-01T14:18:03;5.00;;;1.15;;
68870;SDS011;55906;52.278;6.808;2022-08-01T14:20:32;3.63;;;1.02;;
68870;SDS011;55906;52.278;6.808;2022-08-01T14:22:59;4.43;;;1.13;;
68870;SDS011;55906;52.278;6.808;2022-08-01T14:25:25;4.07;;;1.20;;
68870;SDS011;55906;52.278;6.808;2022-08-01T14:27:52;4.17;;;0.93;;
68870;SDS011;55906;52.278;6.808;2022-08-01T14:30:19;5.00;;;1.00;;
68870;SDS011;55906;52.278;6.808;2022-08-01T14:32:46;3.47;;;0.95;;
68870;SDS011;55906;52.278;6.808;2022-08-01T14:35:14;3.90;;;1.10;;
68870;SDS011;55906;52.278;6.808;2022-08-01T14:37:42;5.35;;;1.40;;
68870;SDS011;55906;52.278;6.808;2022-08-01T14:40:11;3.73;;;1.10;;
68870;SDS011;55906;52.278;6.808;2022-08-01T14:42:39;5.40;;;1.20;;
68870;SDS011;55906;52.278;6.808;2022-08-01T14:45:06;4.50;;;1.20;;
68870;SDS011;55906;52.278;6.808;2022-08-01T14:47:36;5.28;;;1.15;;
68870;SDS011;55906;52.278;6.808;2022-08-01T14:50:05;4.50;;;1.00;;
68870;SDS011;55906;52.278;6.808;2022-08-01T14:52:33;3.53;;;0.90;;
68870;SDS011;55906;52.278;6.808;2022-08-01T14:55:02;4.65;;;1.25;;
68870;SDS011;55906;52.278;6.808;2022-08-01T14:57:29;4.32;;;1.10;;
68870;SDS011;55906;52.278;6.808;2022-08-01T14:59:56;4.82;;;1.30;;
68870;SDS011;55906;52.278;6.808;2022-08-01T15:02:23;3.80;;;1.08;;
68870;SDS011;55906;52.278;6.808;2022-08-01T15:04:49;5.33;;;1.20;;
68870;SDS011;55906;52.278;6.808;2022-08-01T15:07:17;4.80;;;1.10;;
68870;SDS011;55906;52.278;6.808;2022-08-01T15:09:44;3.45;;;1.10;;
68870;SDS011;55906;52.278;6.808;2022-08-01T15:12:12;4.22;;;1.15;;
68870;SDS011;55906;52.278;6.808;2022-08-01T15:14:39;4.38;;;1.23;;
68870;SDS011;55906;52.278;6.808;2022-08-01T15:17:15;3.30;;;0.90;;
68870;SDS011;55906;52.278;6.808;2022-08-01T15:19:42;4.45;;;1.33;;
68870;SDS011;55906;52.278;6.808;2022-08-01T15:22:09;4.18;;;1.10;;